createdAt,value
2018-06-27T00:00:02.629Z,1014.4
2018-06-27T00:01:04.242Z,1014.4
2018-06-27T00:02:05.855Z,1014.4
2018-06-27T00:03:07.470Z,1014.3
2018-06-27T00:04:09.087Z,1014.3
2018-06-27T00:05:10.703Z,1014.3
2018-06-27T00:06:12.310Z,1014.3
2018-06-27T00:07:13.928Z,1014.3
2018-06-27T00:08:15.546Z,1014.3
2018-06-27T00:09:17.155Z,1014.3
2018-06-27T00:10:18.770Z,1014.3
2018-06-27T00:11:20.386Z,1014.3
2018-06-27T00:12:22.002Z,1014.3
2018-06-27T00:13:23.610Z,1014.3
2018-06-27T00:14:25.230Z,1014.3
2018-06-27T00:15:26.837Z,1014.3
2018-06-27T00:16:28.450Z,1014.3
2018-06-27T00:17:30.069Z,1014.3
2018-06-27T00:18:31.681Z,1014.3
2018-06-27T00:19:33.300Z,1014.2
2018-06-27T00:20:34.913Z,1014.2
2018-06-27T00:21:36.532Z,1014.2
2018-06-27T00:22:38.148Z,1014.2
2018-06-27T00:23:39.757Z,1014.2
2018-06-27T00:24:41.382Z,1014.2
2018-06-27T00:25:42.985Z,1014.2
2018-06-27T00:26:44.601Z,1014.3
2018-06-27T00:27:46.209Z,1014.3
2018-06-27T00:28:47.827Z,1014.2
2018-06-27T00:29:49.438Z,1014.2
2018-06-27T00:30:51.053Z,1014.2
2018-06-27T00:31:52.667Z,1014.2
2018-06-27T00:32:54.284Z,1014.2
2018-06-27T00:33:55.905Z,1014.3
2018-06-27T00:34:57.506Z,1014.2
2018-06-27T00:35:59.122Z,1014.3
2018-06-27T00:37:00.751Z,1014.2
2018-06-27T00:38:02.365Z,1014.2
2018-06-27T00:39:03.974Z,1014.2
2018-06-27T00:40:05.592Z,1014.2
2018-06-27T00:41:07.208Z,1014.2
2018-06-27T00:42:08.816Z,1014.2
2018-06-27T00:43:10.453Z,1014.2
2018-06-27T00:44:12.058Z,1014.2
2018-06-27T00:45:13.672Z,1014.3
2018-06-27T00:46:15.290Z,1014.2
2018-06-27T00:47:16.905Z,1014.2
2018-06-27T00:48:18.523Z,1014.2
2018-06-27T00:49:20.135Z,1014.2
2018-06-27T00:50:21.746Z,1014.2
2018-06-27T00:51:23.359Z,1014.2
2018-06-27T00:52:24.970Z,1014.2
2018-06-27T00:53:26.577Z,1014.2
2018-06-27T00:54:28.200Z,1014.2
2018-06-27T00:55:29.812Z,1014.2
2018-06-27T00:56:31.426Z,1014.2
2018-06-27T00:57:33.038Z,1014.2
2018-06-27T00:58:34.656Z,1014.2
2018-06-27T00:59:36.267Z,1014.3
2018-06-27T01:00:37.881Z,1014.3
2018-06-27T01:01:39.495Z,1014.2
2018-06-27T01:02:41.108Z,1014.3
2018-06-27T01:03:42.724Z,1014.2
2018-06-27T01:04:44.335Z,1014.2
2018-06-27T01:05:45.951Z,1014.2
2018-06-27T01:06:47.562Z,1014.2
2018-06-27T01:07:49.176Z,1014.2
2018-06-27T01:08:50.795Z,1014.2
2018-06-27T01:09:52.406Z,1014.2
2018-06-27T01:10:54.025Z,1014.2
2018-06-27T01:11:55.630Z,1014.2
2018-06-27T01:12:57.247Z,1014.2
2018-06-27T01:13:58.862Z,1014.2
2018-06-27T01:15:00.474Z,1014.2
2018-06-27T01:16:02.092Z,1014.2
2018-06-27T01:17:03.704Z,1014.2
2018-06-27T01:18:05.313Z,1014.2
2018-06-27T01:19:06.928Z,1014.2
2018-06-27T01:20:08.552Z,1014.2
2018-06-27T01:21:10.151Z,1014.2
2018-06-27T01:22:11.765Z,1014.2
2018-06-27T01:23:13.383Z,1014.2
2018-06-27T01:24:14.993Z,1014.2
2018-06-27T01:25:16.610Z,1014.2
2018-06-27T01:26:18.226Z,1014.2
2018-06-27T01:27:19.838Z,1014.2
2018-06-27T01:28:21.448Z,1014.2
2018-06-27T01:29:23.070Z,1014.2
2018-06-27T01:30:24.675Z,1014.2
2018-06-27T01:31:26.296Z,1014.2
2018-06-27T01:32:27.905Z,1014.3
2018-06-27T01:33:29.521Z,1014.3
2018-06-27T01:34:31.131Z,1014.3
2018-06-27T01:35:32.748Z,1014.3
2018-06-27T01:36:34.361Z,1014.3
2018-06-27T01:37:35.979Z,1014.2
2018-06-27T01:38:37.591Z,1014.3
2018-06-27T01:39:39.199Z,1014.3
2018-06-27T01:40:40.816Z,1014.3
2018-06-27T01:41:42.424Z,1014.3
2018-06-27T01:42:44.038Z,1014.3
2018-06-27T01:43:45.645Z,1014.3
2018-06-27T01:44:47.263Z,1014.3
2018-06-27T01:45:48.885Z,1014.3
2018-06-27T01:46:50.487Z,1014.3
2018-06-27T01:47:52.104Z,1014.3
2018-06-27T01:48:53.715Z,1014.3
2018-06-27T01:49:55.329Z,1014.4
2018-06-27T01:50:56.936Z,1014.4
2018-06-27T01:51:58.552Z,1014.4
2018-06-27T01:53:00.164Z,1014.4
2018-06-27T01:54:01.780Z,1014.4
2018-06-27T01:55:03.386Z,1014.4
2018-06-27T01:56:05.003Z,1014.4
2018-06-27T01:57:06.610Z,1014.5
2018-06-27T01:58:08.227Z,1014.5
2018-06-27T01:59:09.838Z,1014.4
2018-06-27T02:00:11.454Z,1014.5
2018-06-27T02:01:13.070Z,1014.5
2018-06-27T02:02:14.677Z,1014.5
2018-06-27T02:03:16.291Z,1014.5
2018-06-27T02:04:17.901Z,1014.5
2018-06-27T02:05:19.517Z,1014.5
2018-06-27T02:06:21.129Z,1014.5
2018-06-27T02:07:22.748Z,1014.5
2018-06-27T02:08:24.355Z,1014.5
2018-06-27T02:09:25.965Z,1014.5
2018-06-27T02:10:27.579Z,1014.5
2018-06-27T02:11:29.188Z,1014.5
2018-06-27T02:12:30.808Z,1014.5
2018-06-27T02:13:32.422Z,1014.5
2018-06-27T02:14:34.037Z,1014.6
2018-06-27T02:15:35.644Z,1014.5
2018-06-27T02:16:37.254Z,1014.5
2018-06-27T02:17:38.869Z,1014.5
2018-06-27T02:18:40.482Z,1014.5
2018-06-27T02:19:42.116Z,1014.5
2018-06-27T02:20:43.727Z,1014.5
2018-06-27T02:21:45.339Z,1014.5
2018-06-27T02:22:46.953Z,1014.5
2018-06-27T02:23:48.561Z,1014.5
2018-06-27T02:24:50.174Z,1014.5
2018-06-27T02:25:51.785Z,1014.5
2018-06-27T02:26:53.403Z,1014.5
2018-06-27T02:27:55.014Z,1014.5
2018-06-27T02:28:56.624Z,1014.5
2018-06-27T02:29:58.231Z,1014.5
2018-06-27T02:30:59.842Z,1014.5
2018-06-27T02:32:01.452Z,1014.5
2018-06-27T02:33:03.069Z,1014.4
2018-06-27T02:34:04.683Z,1014.5
2018-06-27T02:35:06.300Z,1014.5
2018-06-27T02:36:07.914Z,1014.4
2018-06-27T02:37:09.530Z,1014.4
2018-06-27T02:38:11.140Z,1014.4
2018-06-27T02:39:12.751Z,1014.4
2018-06-27T02:40:14.358Z,1014.4
2018-06-27T02:41:15.981Z,1014.4
2018-06-27T02:42:17.584Z,1014.4
2018-06-27T02:43:19.204Z,1014.4
2018-06-27T02:44:20.816Z,1014.4
2018-06-27T02:45:22.423Z,1014.4
2018-06-27T02:46:24.034Z,1014.4
2018-06-27T02:47:25.644Z,1014.4
2018-06-27T02:48:27.256Z,1014.4
2018-06-27T02:49:28.880Z,1014.4
2018-06-27T02:50:30.484Z,1014.4
2018-06-27T02:51:32.103Z,1014.4
2018-06-27T02:52:33.710Z,1014.4
2018-06-27T02:53:36.143Z,1014.5
2018-06-27T02:54:37.752Z,1014.4
2018-06-27T02:55:39.370Z,1014.4
2018-06-27T02:56:40.985Z,1014.4
2018-06-27T02:57:42.597Z,1014.4
2018-06-27T02:58:44.206Z,1014.4
2018-06-27T02:59:45.833Z,1014.4
2018-06-27T03:00:47.431Z,1014.4
2018-06-27T03:01:49.047Z,1014.4
2018-06-27T03:02:50.656Z,1014.4
2018-06-27T03:03:52.274Z,1014.4
2018-06-27T03:04:53.889Z,1014.4
2018-06-27T03:05:55.500Z,1014.3
2018-06-27T03:06:57.117Z,1014.3
2018-06-27T03:07:58.731Z,1014.3
2018-06-27T03:09:00.347Z,1014.3
2018-06-27T03:10:01.964Z,1014.3
2018-06-27T03:11:03.578Z,1014.3
2018-06-27T03:12:05.203Z,1014.3
2018-06-27T03:13:06.815Z,1014.3
2018-06-27T03:14:08.434Z,1014.4
2018-06-27T03:15:10.046Z,1014.3
2018-06-27T03:16:11.656Z,1014.3
2018-06-27T03:17:13.270Z,1014.3
2018-06-27T03:18:14.894Z,1014.3
2018-06-27T03:19:16.506Z,1014.3
2018-06-27T03:20:18.149Z,1014.3
2018-06-27T03:21:19.733Z,1014.3
2018-06-27T03:22:21.344Z,1014.3
2018-06-27T03:23:22.962Z,1014.3
2018-06-27T03:24:24.577Z,1014.3
2018-06-27T03:25:26.192Z,1014.3
2018-06-27T03:26:27.817Z,1014.3
2018-06-27T03:27:29.421Z,1014.3
2018-06-27T03:28:31.046Z,1014.3
2018-06-27T03:29:32.663Z,1014.3
2018-06-27T03:30:34.773Z,1014.3
2018-06-27T03:31:36.394Z,1014.3
2018-06-27T03:32:38.015Z,1014.3
2018-06-27T03:33:39.677Z,1014.3
2018-06-27T03:34:41.243Z,1014.3
2018-06-27T03:35:42.851Z,1014.3
2018-06-27T03:36:44.466Z,1014.3
2018-06-27T03:37:46.082Z,1014.3
2018-06-27T03:38:47.702Z,1014.3
2018-06-27T03:39:49.324Z,1014.3
2018-06-27T03:40:50.937Z,1014.3
2018-06-27T03:41:52.552Z,1014.3
2018-06-27T03:42:54.171Z,1014.3
2018-06-27T03:43:55.779Z,1014.3
2018-06-27T03:44:57.403Z,1014.3
2018-06-27T03:45:59.018Z,1014.3
2018-06-27T03:47:00.634Z,1014.3
2018-06-27T03:48:02.266Z,1014.4
2018-06-27T03:49:03.882Z,1014.4
2018-06-27T03:50:05.493Z,1014.4
2018-06-27T03:51:07.114Z,1014.4
2018-06-27T03:52:08.727Z,1014.4
2018-06-27T03:53:10.341Z,1014.4
2018-06-27T03:54:11.965Z,1014.4
2018-06-27T03:55:13.586Z,1014.5
2018-06-27T03:56:15.196Z,1014.5
2018-06-27T03:57:16.809Z,1014.5
2018-06-27T03:58:18.423Z,1014.5
2018-06-27T03:59:20.047Z,1014.5
2018-06-27T04:00:21.671Z,1014.5
2018-06-27T04:01:23.288Z,1014.5
2018-06-27T04:02:24.907Z,1014.5
2018-06-27T04:03:26.528Z,1014.5
2018-06-27T04:04:28.143Z,1014.5
2018-06-27T04:05:29.761Z,1014.5
2018-06-27T04:06:31.382Z,1014.5
2018-06-27T04:07:32.994Z,1014.5
2018-06-27T04:08:34.613Z,1014.5
2018-06-27T04:09:36.235Z,1014.5
2018-06-27T04:10:37.853Z,1014.5
2018-06-27T04:11:39.477Z,1014.6
2018-06-27T04:12:41.188Z,1014.6
2018-06-27T04:13:42.716Z,1014.5
2018-06-27T04:14:44.332Z,1014.5
2018-06-27T04:15:45.963Z,1014.6
2018-06-27T04:16:47.567Z,1014.5
2018-06-27T04:17:49.186Z,1014.5
2018-06-27T04:18:50.804Z,1014.6
2018-06-27T04:19:52.425Z,1014.6
2018-06-27T04:20:54.049Z,1014.6
2018-06-27T04:21:55.657Z,1014.6
2018-06-27T04:22:57.279Z,1014.6
2018-06-27T04:23:58.899Z,1014.6
2018-06-27T04:25:00.519Z,1014.6
2018-06-27T04:26:02.133Z,1014.6
2018-06-27T04:27:03.755Z,1014.7
2018-06-27T04:28:05.371Z,1014.6
2018-06-27T04:29:06.983Z,1014.7
2018-06-27T04:30:08.611Z,1014.7
2018-06-27T04:31:10.233Z,1014.7
2018-06-27T04:32:11.845Z,1014.7
2018-06-27T04:33:13.462Z,1014.6
2018-06-27T04:34:15.080Z,1014.6
2018-06-27T04:35:16.702Z,1014.6
2018-06-27T04:36:18.319Z,1014.6
2018-06-27T04:37:19.943Z,1014.6
2018-06-27T04:38:21.558Z,1014.6
2018-06-27T04:39:23.180Z,1014.6
2018-06-27T04:40:24.798Z,1014.6
2018-06-27T04:41:26.411Z,1014.6
2018-06-27T04:42:28.033Z,1014.6
2018-06-27T04:43:29.652Z,1014.6
2018-06-27T04:44:31.269Z,1014.6
2018-06-27T04:45:32.895Z,1014.6
2018-06-27T04:46:34.507Z,1014.6
2018-06-27T04:47:36.122Z,1014.6
2018-06-27T04:48:37.748Z,1014.6
2018-06-27T04:49:39.365Z,1014.7
2018-06-27T04:50:40.983Z,1014.7
2018-06-27T04:51:43.146Z,1014.7
2018-06-27T04:52:44.773Z,1014.6
2018-06-27T04:53:46.389Z,1014.6
2018-06-27T04:54:48.015Z,1014.7
2018-06-27T04:55:49.628Z,1014.6
2018-06-27T04:56:51.253Z,1014.7
2018-06-27T04:57:52.872Z,1014.7
2018-06-27T04:58:54.494Z,1014.8
2018-06-27T04:59:56.118Z,1014.8
2018-06-27T05:00:57.728Z,1014.7
2018-06-27T05:01:59.345Z,1014.7
2018-06-27T05:03:00.965Z,1014.8
2018-06-27T05:04:02.588Z,1014.8
2018-06-27T05:05:04.204Z,1014.8
2018-06-27T05:06:05.825Z,1014.8
2018-06-27T05:07:07.446Z,1014.8
2018-06-27T05:08:09.064Z,1014.8
2018-06-27T05:09:10.679Z,1014.8
2018-06-27T05:10:12.292Z,1014.8
2018-06-27T05:11:13.915Z,1014.8
2018-06-27T05:12:15.536Z,1014.8
2018-06-27T05:13:17.155Z,1014.8
2018-06-27T05:14:18.773Z,1014.8
2018-06-27T05:15:20.391Z,1014.8
2018-06-27T05:16:22.011Z,1014.8
2018-06-27T05:17:23.625Z,1014.8
2018-06-27T05:18:25.249Z,1014.8
2018-06-27T05:19:26.864Z,1014.8
2018-06-27T05:20:28.489Z,1014.8
2018-06-27T05:21:30.105Z,1014.8
2018-06-27T05:22:31.724Z,1014.8
2018-06-27T05:23:33.341Z,1014.8
2018-06-27T05:24:34.960Z,1014.8
2018-06-27T05:25:36.576Z,1014.8
2018-06-27T05:26:38.197Z,1014.8
2018-06-27T05:27:39.989Z,1014.8
2018-06-27T05:28:41.441Z,1014.8
2018-06-27T05:29:43.057Z,1014.8
2018-06-27T05:30:44.684Z,1014.8
2018-06-27T05:31:46.295Z,1014.8
2018-06-27T05:32:47.919Z,1014.8
2018-06-27T05:33:49.535Z,1014.8
2018-06-27T05:34:51.152Z,1014.8
2018-06-27T05:35:52.777Z,1014.8
2018-06-27T05:36:54.393Z,1014.8
2018-06-27T05:37:56.031Z,1014.8
2018-06-27T05:38:57.649Z,1014.8
2018-06-27T05:39:59.357Z,1014.8
2018-06-27T05:41:00.978Z,1014.8
2018-06-27T05:42:02.592Z,1014.8
2018-06-27T05:43:04.231Z,1014.8
2018-06-27T05:44:05.844Z,1014.8
2018-06-27T05:45:07.467Z,1014.9
2018-06-27T05:46:09.082Z,1014.9
2018-06-27T05:47:10.697Z,1014.9
2018-06-27T05:48:12.319Z,1014.9
2018-06-27T05:49:13.948Z,1014.9
2018-06-27T05:50:15.565Z,1014.9
2018-06-27T05:51:17.181Z,1014.9
2018-06-27T05:52:18.803Z,1014.9
2018-06-27T05:53:20.422Z,1014.9
2018-06-27T05:54:22.040Z,1014.9
2018-06-27T05:55:23.661Z,1014.9
2018-06-27T05:56:25.290Z,1014.9
2018-06-27T05:57:26.914Z,1014.9
2018-06-27T05:58:28.546Z,1014.9
2018-06-27T05:59:30.153Z,1015.0
2018-06-27T06:00:31.777Z,1014.9
2018-06-27T06:01:33.396Z,1014.9
2018-06-27T06:02:35.018Z,1015.0
2018-06-27T06:03:36.636Z,1015.0
2018-06-27T06:04:38.262Z,1015.0
2018-06-27T06:05:39.884Z,1015.0
2018-06-27T06:06:41.499Z,1015.0
2018-06-27T06:07:43.126Z,1015.0
2018-06-27T06:08:44.753Z,1015.0
2018-06-27T06:09:46.372Z,1014.9
2018-06-27T06:10:47.994Z,1014.9
2018-06-27T06:11:49.610Z,1014.9
2018-06-27T06:12:51.246Z,1014.9
2018-06-27T06:13:52.850Z,1014.9
2018-06-27T06:14:54.473Z,1014.9
2018-06-27T06:15:56.096Z,1014.9
2018-06-27T06:16:57.713Z,1014.9
2018-06-27T06:17:59.334Z,1014.9
2018-06-27T06:19:00.961Z,1015.0
2018-06-27T06:20:02.576Z,1015.1
2018-06-27T06:21:04.198Z,1015.1
2018-06-27T06:22:05.819Z,1015.1
2018-06-27T06:23:07.436Z,1015.1
2018-06-27T06:24:09.062Z,1015.2
2018-06-27T06:25:10.690Z,1015.2
2018-06-27T06:26:12.310Z,1015.2
2018-06-27T06:27:13.927Z,1015.2
2018-06-27T06:28:15.548Z,1015.2
2018-06-27T06:29:17.172Z,1015.2
2018-06-27T06:30:18.794Z,1015.2
2018-06-27T06:31:20.422Z,1015.3
2018-06-27T06:32:22.095Z,1015.3
2018-06-27T06:33:23.665Z,1015.3
2018-06-27T06:34:25.287Z,1015.3
2018-06-27T06:35:26.917Z,1015.3
2018-06-27T06:36:28.537Z,1015.3
2018-06-27T06:37:30.164Z,1015.4
2018-06-27T06:38:31.790Z,1015.4
2018-06-27T06:39:33.415Z,1015.4
2018-06-27T06:40:35.111Z,1015.3
2018-06-27T06:41:36.682Z,1015.3
2018-06-27T06:42:38.304Z,1015.4
2018-06-27T06:43:39.929Z,1015.3
2018-06-27T06:44:41.554Z,1015.3
2018-06-27T06:45:43.183Z,1015.4
2018-06-27T06:46:44.813Z,1015.4
2018-06-27T06:47:46.439Z,1015.4
2018-06-27T06:48:48.061Z,1015.4
2018-06-27T06:49:49.694Z,1015.3
2018-06-27T06:50:51.318Z,1015.3
2018-06-27T06:51:52.949Z,1015.4
2018-06-27T06:52:54.573Z,1015.4
2018-06-27T06:53:56.208Z,1015.4
2018-06-27T06:54:57.833Z,1015.4
2018-06-27T06:55:59.461Z,1015.3
2018-06-27T06:57:01.090Z,1015.3
2018-06-27T06:58:02.715Z,1015.3
2018-06-27T06:59:04.341Z,1015.4
2018-06-27T07:00:05.969Z,1015.4
2018-06-27T07:01:07.605Z,1015.4
2018-06-27T07:02:09.238Z,1015.4
2018-06-27T07:03:10.865Z,1015.4
2018-06-27T07:04:12.493Z,1015.4
2018-06-27T07:05:14.122Z,1015.4
2018-06-27T07:06:15.760Z,1015.4
2018-06-27T07:07:17.385Z,1015.4
2018-06-27T07:08:19.021Z,1015.3
2018-06-27T07:09:20.650Z,1015.4
2018-06-27T07:10:22.283Z,1015.4
2018-06-27T07:11:23.918Z,1015.4
2018-06-27T07:12:25.546Z,1015.3
2018-06-27T07:13:27.180Z,1015.4
2018-06-27T07:14:28.815Z,1015.4
2018-06-27T07:15:30.445Z,1015.4
2018-06-27T07:16:32.075Z,1015.4
2018-06-27T07:17:33.701Z,1015.4
2018-06-27T07:18:35.334Z,1015.4
2018-06-27T07:19:36.964Z,1015.5
2018-06-27T07:20:38.600Z,1015.5
2018-06-27T07:21:40.234Z,1015.5
2018-06-27T07:22:41.865Z,1015.5
2018-06-27T07:23:43.503Z,1015.5
2018-06-27T07:24:45.132Z,1015.5
2018-06-27T07:25:46.763Z,1015.5
2018-06-27T07:26:48.401Z,1015.5
2018-06-27T07:27:50.030Z,1015.5
2018-06-27T07:28:51.707Z,1015.5
2018-06-27T07:29:53.300Z,1015.5
2018-06-27T07:30:54.948Z,1015.5
2018-06-27T07:31:56.580Z,1015.4
2018-06-27T07:32:58.210Z,1015.4
2018-06-27T07:33:59.844Z,1015.4
2018-06-27T07:35:01.480Z,1015.4
2018-06-27T07:36:03.118Z,1015.4
2018-06-27T07:37:04.753Z,1015.4
2018-06-27T07:38:06.387Z,1015.4
2018-06-27T07:39:08.024Z,1015.4
2018-06-27T07:40:09.661Z,1015.5
2018-06-27T07:41:11.289Z,1015.5
2018-06-27T07:42:12.927Z,1015.5
2018-06-27T07:43:14.560Z,1015.5
2018-06-27T07:44:16.197Z,1015.5
2018-06-27T07:45:17.837Z,1015.5
2018-06-27T07:46:19.473Z,1015.5
2018-06-27T07:47:21.104Z,1015.5
2018-06-27T07:48:22.740Z,1015.5
2018-06-27T07:49:24.372Z,1015.5
2018-06-27T07:50:26.006Z,1015.5
2018-06-27T07:51:27.643Z,1015.5
2018-06-27T07:52:29.284Z,1015.5
2018-06-27T07:53:30.915Z,1015.5
2018-06-27T07:54:32.550Z,1015.5
2018-06-27T07:55:34.188Z,1015.5
2018-06-27T07:56:35.821Z,1015.5
2018-06-27T07:57:37.459Z,1015.5
2018-06-27T07:58:39.095Z,1015.5
2018-06-27T07:59:40.736Z,1015.5
2018-06-27T08:00:42.368Z,1015.5
2018-06-27T08:01:44.009Z,1015.5
2018-06-27T08:02:45.647Z,1015.5
2018-06-27T08:03:47.282Z,1015.6
2018-06-27T08:04:48.919Z,1015.5
2018-06-27T08:05:50.617Z,1015.5
2018-06-27T08:06:52.192Z,1015.5
2018-06-27T08:07:53.828Z,1015.5
2018-06-27T08:08:55.467Z,1015.5
2018-06-27T08:09:57.101Z,1015.5
2018-06-27T08:10:58.744Z,1015.5
2018-06-27T08:12:00.377Z,1015.5
2018-06-27T08:13:02.022Z,1015.5
2018-06-27T08:14:03.657Z,1015.5
2018-06-27T08:15:05.293Z,1015.5
2018-06-27T08:16:06.929Z,1015.5
2018-06-27T08:17:08.567Z,1015.5
2018-06-27T08:18:10.205Z,1015.5
2018-06-27T08:19:11.844Z,1015.5
2018-06-27T08:20:13.481Z,1015.5
2018-06-27T08:21:15.125Z,1015.5
2018-06-27T08:22:16.764Z,1015.5
2018-06-27T08:23:18.397Z,1015.4
2018-06-27T08:24:20.048Z,1015.4
2018-06-27T08:25:21.682Z,1015.4
2018-06-27T08:26:24.169Z,1015.5
2018-06-27T08:27:25.650Z,1015.5
2018-06-27T08:28:27.291Z,1015.4
2018-06-27T08:29:28.929Z,1015.4
2018-06-27T08:30:30.565Z,1015.5
2018-06-27T08:31:32.202Z,1015.5
2018-06-27T08:32:33.909Z,1015.5
2018-06-27T08:33:35.490Z,1015.4
2018-06-27T08:34:37.127Z,1015.4
2018-06-27T08:35:38.764Z,1015.4
2018-06-27T08:36:40.401Z,1015.4
2018-06-27T08:37:42.043Z,1015.4
2018-06-27T08:38:43.686Z,1015.5
2018-06-27T08:39:45.325Z,1015.4
2018-06-27T08:40:46.970Z,1015.4
2018-06-27T08:41:48.612Z,1015.4
2018-06-27T08:42:50.249Z,1015.4
2018-06-27T08:43:51.887Z,1015.4
2018-06-27T08:44:53.530Z,1015.4
2018-06-27T08:45:55.173Z,1015.4
2018-06-27T08:46:56.814Z,1015.4
2018-06-27T08:47:58.450Z,1015.4
2018-06-27T08:49:00.103Z,1015.4
2018-06-27T08:50:01.817Z,1015.4
2018-06-27T08:51:03.377Z,1015.4
2018-06-27T08:52:05.020Z,1015.4
2018-06-27T08:53:06.659Z,1015.4
2018-06-27T08:54:08.307Z,1015.4
2018-06-27T08:55:09.940Z,1015.4
2018-06-27T08:56:11.581Z,1015.4
2018-06-27T08:57:13.228Z,1015.4
2018-06-27T08:58:14.867Z,1015.4
2018-06-27T08:59:16.506Z,1015.4
2018-06-27T09:00:18.142Z,1015.4
2018-06-27T09:01:19.790Z,1015.4
2018-06-27T09:02:21.430Z,1015.4
2018-06-27T09:03:23.070Z,1015.3
2018-06-27T09:04:24.712Z,1015.4
2018-06-27T09:05:26.352Z,1015.3
2018-06-27T09:06:27.995Z,1015.4
2018-06-27T09:07:29.631Z,1015.3
2018-06-27T09:08:31.275Z,1015.3
2018-06-27T09:09:33.083Z,1015.3
2018-06-27T09:10:34.710Z,1015.3
2018-06-27T09:11:36.352Z,1015.3
2018-06-27T09:12:37.996Z,1015.3
2018-06-27T09:13:39.636Z,1015.2
2018-06-27T09:14:41.282Z,1015.3
2018-06-27T09:15:42.923Z,1015.3
2018-06-27T09:16:44.571Z,1015.3
2018-06-27T09:17:46.209Z,1015.3
2018-06-27T09:18:47.855Z,1015.2
2018-06-27T09:19:49.492Z,1015.2
2018-06-27T09:20:51.133Z,1015.2
2018-06-27T09:21:52.773Z,1015.2
2018-06-27T09:22:54.418Z,1015.2
2018-06-27T09:23:56.059Z,1015.1
2018-06-27T09:24:57.707Z,1015.1
2018-06-27T09:25:59.345Z,1015.1
2018-06-27T09:27:00.993Z,1015.1
2018-06-27T09:28:02.633Z,1015.1
2018-06-27T09:29:04.270Z,1015.1
2018-06-27T09:30:05.917Z,1015.1
2018-06-27T09:31:07.607Z,1015.1
2018-06-27T09:32:09.206Z,1015.0
2018-06-27T09:33:10.845Z,1015.1
2018-06-27T09:34:12.556Z,1015.0
2018-06-27T09:35:14.136Z,1015.0
2018-06-27T09:36:15.775Z,1015.0
2018-06-27T09:37:17.419Z,1015.0
2018-06-27T09:38:19.063Z,1015.0
2018-06-27T09:39:20.710Z,1015.0
2018-06-27T09:40:22.353Z,1015.1
2018-06-27T09:41:23.996Z,1015.0
2018-06-27T09:42:25.635Z,1015.0
2018-06-27T09:43:27.281Z,1014.9
2018-06-27T09:44:28.929Z,1015.0
2018-06-27T09:45:30.570Z,1015.0
2018-06-27T09:46:32.216Z,1015.0
2018-06-27T09:47:33.864Z,1015.0
2018-06-27T09:48:35.501Z,1015.0
2018-06-27T09:49:37.151Z,1015.0
2018-06-27T09:50:38.788Z,1015.0
2018-06-27T09:51:40.429Z,1015.0
2018-06-27T09:52:42.077Z,1015.0
2018-06-27T09:53:43.721Z,1015.0
2018-06-27T09:54:45.362Z,1015.0
2018-06-27T09:55:47.005Z,1015.0
2018-06-27T09:56:48.688Z,1015.0
2018-06-27T09:57:50.289Z,1014.9
2018-06-27T09:58:51.937Z,1014.9
2018-06-27T09:59:53.582Z,1014.9
2018-06-27T10:00:55.223Z,1014.9
2018-06-27T10:01:56.862Z,1014.8
2018-06-27T10:02:58.510Z,1014.9
2018-06-27T10:04:00.156Z,1014.8
2018-06-27T10:05:01.805Z,1014.9
2018-06-27T10:06:03.443Z,1014.8
2018-06-27T10:07:05.090Z,1014.8
2018-06-27T10:08:06.730Z,1014.8
2018-06-27T10:09:08.380Z,1014.8
2018-06-27T10:10:10.019Z,1014.8
2018-06-27T10:11:11.667Z,1014.8
2018-06-27T10:12:13.305Z,1014.7
2018-06-27T10:13:14.950Z,1014.8
2018-06-27T10:14:16.593Z,1014.8
2018-06-27T10:15:18.236Z,1014.8
2018-06-27T10:16:19.884Z,1014.7
2018-06-27T10:17:21.622Z,1014.7
2018-06-27T10:18:23.169Z,1014.7
2018-06-27T10:19:24.805Z,1014.7
2018-06-27T10:20:26.453Z,1014.7
2018-06-27T10:21:28.092Z,1014.7
2018-06-27T10:22:29.858Z,1014.7
2018-06-27T10:23:31.386Z,1014.7
2018-06-27T10:24:33.020Z,1014.6
2018-06-27T10:25:34.668Z,1014.6
2018-06-27T10:26:36.304Z,1014.7
2018-06-27T10:27:37.951Z,1014.8
2018-06-27T10:28:39.592Z,1014.8
2018-06-27T10:29:41.246Z,1014.8
2018-06-27T10:30:42.885Z,1014.8
2018-06-27T10:31:44.523Z,1014.7
2018-06-27T10:32:46.162Z,1014.7
2018-06-27T10:33:47.806Z,1014.7
2018-06-27T10:34:49.454Z,1014.6
2018-06-27T10:35:51.136Z,1014.6
2018-06-27T10:36:52.737Z,1014.6
2018-06-27T10:37:54.376Z,1014.6
2018-06-27T10:38:56.016Z,1014.7
2018-06-27T10:39:57.659Z,1014.7
2018-06-27T10:40:59.300Z,1014.7
2018-06-27T10:42:00.944Z,1014.6
2018-06-27T10:43:02.584Z,1014.6
2018-06-27T10:44:04.231Z,1014.6
2018-06-27T10:45:05.872Z,1014.5
2018-06-27T10:46:07.520Z,1014.6
2018-06-27T10:47:09.164Z,1014.6
2018-06-27T10:48:10.799Z,1014.6
2018-06-27T10:49:12.442Z,1014.3
2018-06-27T10:50:14.084Z,1014.5
2018-06-27T10:51:15.723Z,1014.5
2018-06-27T10:52:17.365Z,1014.5
2018-06-27T10:53:19.026Z,1014.4
2018-06-27T10:54:20.664Z,1014.5
2018-06-27T10:55:22.308Z,1014.6
2018-06-27T10:56:23.948Z,1014.5
2018-06-27T10:57:25.596Z,1014.4
2018-06-27T10:58:27.237Z,1014.2
2018-06-27T10:59:28.888Z,1014.5
2018-06-27T11:00:30.522Z,1014.5
2018-06-27T11:01:32.171Z,1014.5
2018-06-27T11:02:33.804Z,1014.5
2018-06-27T11:03:35.444Z,1014.5
2018-06-27T11:04:37.095Z,1014.5
2018-06-27T11:05:38.732Z,1014.5
2018-06-27T11:06:40.376Z,1014.4
2018-06-27T11:07:42.018Z,1014.4
2018-06-27T11:08:43.656Z,1014.4
2018-06-27T11:09:45.299Z,1014.4
2018-06-27T11:10:46.941Z,1014.3
2018-06-27T11:11:48.590Z,1014.2
2018-06-27T11:12:50.229Z,1014.3
2018-06-27T11:13:51.875Z,1014.3
2018-06-27T11:14:53.510Z,1014.3
2018-06-27T11:15:55.151Z,1014.3
2018-06-27T11:16:56.798Z,1014.3
2018-06-27T11:17:58.436Z,1014.3
2018-06-27T11:19:00.088Z,1014.3
2018-06-27T11:20:01.724Z,1014.1
2018-06-27T11:21:03.372Z,1014.2
2018-06-27T11:22:05.010Z,1014.1
2018-06-27T11:23:06.652Z,1014.2
2018-06-27T11:24:08.287Z,1014.0
2018-06-27T11:25:09.930Z,1014.1
2018-06-27T11:26:11.569Z,1014.0
2018-06-27T11:27:13.217Z,1014.0
2018-06-27T11:28:14.854Z,1014.2
2018-06-27T11:29:16.498Z,1014.2
2018-06-27T11:30:18.146Z,1014.0
2018-06-27T11:31:19.781Z,1014.2
2018-06-27T11:32:21.426Z,1014.1
2018-06-27T11:33:23.064Z,1014.1
2018-06-27T11:34:24.708Z,1013.9
2018-06-27T11:35:26.355Z,1013.8
2018-06-27T11:36:27.988Z,1013.8
2018-06-27T11:37:29.623Z,1013.8
2018-06-27T11:38:31.343Z,1013.9
2018-06-27T11:39:32.900Z,1014.0
2018-06-27T11:40:34.540Z,1013.9
2018-06-27T11:41:36.184Z,1014.0
2018-06-27T11:42:37.825Z,1014.1
2018-06-27T11:43:39.457Z,1014.0
2018-06-27T11:44:41.099Z,1014.0
2018-06-27T11:45:42.740Z,1014.0
2018-06-27T11:46:44.371Z,1014.1
2018-06-27T11:47:46.019Z,1014.1
2018-06-27T11:48:47.658Z,1014.1
2018-06-27T11:49:49.301Z,1014.2
2018-06-27T11:50:50.937Z,1013.8
2018-06-27T11:51:52.583Z,1013.8
2018-06-27T11:52:54.217Z,1013.9
2018-06-27T11:53:55.854Z,1013.8
2018-06-27T11:54:57.494Z,1014.0
2018-06-27T11:55:59.133Z,1014.1
2018-06-27T11:57:00.771Z,1014.1
2018-06-27T11:58:02.416Z,1013.9
2018-06-27T11:59:04.053Z,1013.9
2018-06-27T12:00:05.689Z,1013.8
2018-06-27T12:01:07.326Z,1014.0
2018-06-27T12:02:08.970Z,1013.8
2018-06-27T12:03:10.607Z,1013.8
2018-06-27T12:04:12.251Z,1014.0
2018-06-27T12:05:13.885Z,1013.9
2018-06-27T12:06:15.526Z,1014.1
2018-06-27T12:07:17.160Z,1014.0
2018-06-27T12:08:18.802Z,1014.0
2018-06-27T12:09:20.433Z,1013.6
2018-06-27T12:10:22.078Z,1014.0
2018-06-27T12:11:23.714Z,1014.0
2018-06-27T12:12:25.350Z,1014.1
2018-06-27T12:13:26.990Z,1013.7
2018-06-27T12:14:28.624Z,1013.6
2018-06-27T12:15:30.264Z,1013.8
2018-06-27T12:16:31.905Z,1013.6
2018-06-27T12:17:33.553Z,1013.6
2018-06-27T12:18:35.186Z,1013.5
2018-06-27T12:19:36.819Z,1013.5
2018-06-27T12:20:38.457Z,1013.5
2018-06-27T12:21:40.084Z,1013.5
2018-06-27T12:22:41.724Z,1013.6
2018-06-27T12:23:43.361Z,1013.9
2018-06-27T12:24:44.999Z,1014.0
2018-06-27T12:25:46.636Z,1013.9
2018-06-27T12:26:48.274Z,1013.9
2018-06-27T12:27:49.903Z,1013.9
2018-06-27T12:28:51.540Z,1013.9
2018-06-27T12:29:53.173Z,1013.9
2018-06-27T12:30:54.811Z,1013.5
2018-06-27T12:31:56.446Z,1013.5
2018-06-27T12:32:58.090Z,1013.8
2018-06-27T12:33:59.724Z,1013.8
2018-06-27T12:35:01.355Z,1013.5
2018-06-27T12:36:02.992Z,1013.7
2018-06-27T12:37:04.630Z,1013.5
2018-06-27T12:38:06.272Z,1013.6
2018-06-27T12:39:07.904Z,1013.8
2018-06-27T12:40:09.544Z,1013.8
2018-06-27T12:41:11.172Z,1013.8
2018-06-27T12:42:12.805Z,1013.8
2018-06-27T12:43:14.446Z,1013.8
2018-06-27T12:44:16.132Z,1013.7
2018-06-27T12:45:17.716Z,1013.7
2018-06-27T12:46:19.354Z,1013.6
2018-06-27T12:47:20.993Z,1013.7
2018-06-27T12:48:22.633Z,1013.7